Time;durP1;ratioP1;P1;durP2;ratioP2;P2;SDS_P1;SDS_P2;PMS_P1;PMS_P2;Temp;Humidity;BMP_temperature;BMP_pressure;BME280_temperature;BME280_humidity;BME280_pressure;Samples;Min_cycle;Max_cycle;Signal;HPM_P1;HPM_P2
2022/05/17 00:00:37;;;;;;;4.43;1.25;;;;;;;22.66;40.60;101781.22;5054119;28;20029;-67
2022/05/17 00:03:03;;;;;;;1.15;1.10;;;;;;;22.60;41.67;101774.56;5056511;28;20041;-66
2022/05/17 00:05:28;;;;;;;2.15;1.30;;;;;;;22.57;41.22;101777.69;5056598;28;20025;-67
2022/05/17 00:07:54;;;;;;;3.22;1.60;;;;;;;22.54;41.03;101778.03;5055227;28;20478;-67
2022/05/17 00:10:21;;;;;;;2.80;1.60;;;;;;;22.52;41.71;101771.91;5056407;28;20047;-66
2022/05/17 00:12:50;;;;;;;3.75;1.20;;;;;;;22.49;41.05;101773.16;5056171;28;20095;-66
2022/05/17 00:15:16;;;;;;;3.17;1.65;;;;;;;22.48;41.75;101765.97;5056606;28;20028;-67
2022/05/17 00:17:42;;;;;;;8.52;1.73;;;;;;;22.47;41.42;101772.47;5056111;28;20100;-67
2022/05/17 00:20:08;;;;;;;2.78;1.55;;;;;;;22.46;40.99;101770.78;5055020;28;20032;-67
2022/05/17 00:22:33;;;;;;;4.40;1.17;;;;;;;22.42;41.66;101774.03;5055092;28;20029;-67
2022/05/17 00:24:58;;;;;;;2.55;1.33;;;;;;;22.38;41.94;101776.31;5055980;28;20036;-68
2022/05/17 00:27:24;;;;;;;3.80;1.83;;;;;;;22.35;41.36;101775.81;5055026;28;20024;-67
2022/05/17 00:29:50;;;;;;;2.72;1.45;;;;;;;22.31;42.09;101769.88;5056340;28;20024;-67
2022/05/17 00:32:15;;;;;;;6.72;1.75;;;;;;;22.28;42.24;101770.22;5055901;28;20060;-67
2022/05/17 00:34:41;;;;;;;8.25;1.88;;;;;;;22.25;41.96;101765.13;5056032;28;20052;-66
2022/05/17 00:37:06;;;;;;;8.32;1.92;;;;;;;22.20;42.36;101770.28;5054971;28;20040;-66
2022/05/17 00:39:32;;;;;;;3.75;1.80;;;;;;;22.17;42.06;101767.91;5054718;28;20522;-67
2022/05/17 00:41:58;;;;;;;2.40;1.58;;;;;;;22.14;42.06;101770.19;5056195;28;20024;-67
2022/05/17 00:47:13;;;;;;;2.55;1.50;;;;;;;22.05;42.62;101758.47;5054917;28;20040;-67
2022/05/17 00:49:45;;;;;;;3.25;1.77;;;;;;;22.03;42.49;101757.78;5054337;28;20031;-67
2022/05/17 00:52:22;;;;;;;4.25;1.40;;;;;;;22.00;42.47;101766.34;5037606;28;20025;-67
2022/05/17 00:54:50;;;;;;;5.05;1.33;;;;;;;21.97;42.14;101764.00;5055463;28;20528;-67
2022/05/17 00:57:38;;;;;;;5.82;1.67;;;;;;;21.96;42.58;101763.13;5054229;28;20021;-67
2022/05/17 01:00:08;;;;;;;9.20;2.13;;;;;;;21.93;42.35;101754.44;5055206;28;20524;-67
2022/05/17 01:02:33;;;;;;;4.93;1.27;;;;;;;21.90;42.53;101765.72;5055343;28;20035;-67
2022/05/17 01:05:00;;;;;;;3.22;1.35;;;;;;;21.85;42.21;101757.22;5054020;28;20025;-66
2022/05/17 01:07:28;;;;;;;4.82;1.70;;;;;;;21.82;42.43;101763.03;5055227;28;20024;-66
2022/05/17 01:09:54;;;;;;;4.78;1.40;;;;;;;21.79;42.73;101749.72;5053998;28;20031;-67
2022/05/17 01:12:19;;;;;;;6.72;1.50;;;;;;;21.78;42.58;101748.88;5055013;28;20028;-68
2022/05/17 01:14:57;;;;;;;2.85;1.40;;;;;;;21.75;42.44;101751.09;5054069;28;20021;-67
2022/05/17 01:17:23;;;;;;;3.00;1.70;;;;;;;21.72;42.71;101746.88;5036881;28;20025;-67
2022/05/17 01:19:49;;;;;;;2.22;1.25;;;;;;;21.71;42.32;101747.91;5035338;28;20120;-66
2022/05/17 01:22:14;;;;;;;5.13;2.03;;;;;;;21.71;42.89;101745.19;5035329;28;20552;-67
2022/05/17 01:24:40;;;;;;;4.20;2.00;;;;;;;21.71;42.58;101744.34;5035397;28;20018;-67
2022/05/17 01:27:10;;;;;;;7.30;2.10;;;;;;;21.69;42.89;101746.41;5035037;28;20064;-66
2022/05/17 01:29:42;;;;;;;3.88;1.65;;;;;;;21.66;42.64;101749.47;5034969;28;20064;-67
2022/05/17 01:32:09;;;;;;;2.35;1.50;;;;;;;21.62;42.80;101751.72;5049417;28;20176;-66
2022/05/17 01:34:35;;;;;;;4.55;1.80;;;;;;;21.61;42.53;101743.72;5053765;28;20457;-66
2022/05/17 01:37:01;;;;;;;4.43;1.85;;;;;;;21.60;43.25;101747.47;5054862;28;20025;-67
2022/05/17 01:39:28;;;;;;;5.82;2.03;;;;;;;21.59;42.69;101751.22;5053562;28;20060;-67
2022/05/17 01:41:53;;;;;;;4.88;1.85;;;;;;;21.57;42.59;101750.53;5054589;28;20023;-67
2022/05/17 01:44:19;;;;;;;3.35;1.67;;;;;;;21.56;43.03;101751.56;5054575;28;20025;-66
2022/05/17 01:46:44;;;;;;;5.97;1.88;;;;;;;21.56;42.99;101751.56;5054574;28;20425;-68
2022/05/17 01:49:09;;;;;;;3.20;2.00;;;;;;;21.56;42.47;101746.09;5054415;28;20104;-67
2022/05/17 01:51:35;;;;;;;6.88;2.25;;;;;;;21.54;43.30;101742.72;5054693;28;20045;-67
2022/05/17 01:54:00;;;;;;;2.90;1.67;;;;;;;21.51;42.62;101748.53;5054068;28;20543;-66
2022/05/17 01:56:25;;;;;;;2.67;1.63;;;;;;;21.47;42.62;101748.88;5054436;28;20052;-66
2022/05/17 01:58:50;;;;;;;4.40;2.03;;;;;;;21.45;43.20;101745.47;5054022;28;20474;-67
2022/05/17 02:01:16;;;;;;;4.20;1.90;;;;;;;21.42;43.25;101745.84;5054238;28;20032;-67
2022/05/17 02:03:41;;;;;;;6.32;1.85;;;;;;;21.40;43.10;101742.44;5054323;28;20032;-67
2022/05/17 02:06:07;;;;;;;7.57;1.52;;;;;;;21.39;42.99;101740.72;5054188;28;20547;-68
2022/05/17 02:08:32;;;;;;;6.70;1.85;;;;;;;21.39;42.96;101746.19;5054052;28;20056;-67
2022/05/17 02:10:58;;;;;;;5.13;1.70;;;;;;;21.40;42.93;101741.59;5054139;28;20113;-67
2022/05/17 02:13:23;;;;;;;7.13;2.20;;;;;;;21.40;43.17;101742.44;5054092;28;20131;-67
2022/05/17 02:15:48;;;;;;;2.03;1.60;;;;;;;21.39;43.35;101735.28;5053130;28;20083;-67
2022/05/17 02:18:14;;;;;;;7.78;1.95;;;;;;;21.38;42.97;101741.75;5053979;28;20064;-67
2022/05/17 02:20:39;;;;;;;2.72;1.40;;;;;;;21.36;43.53;101746.53;5053993;28;20033;-68
2022/05/17 02:23:07;;;;;;;4.88;2.30;;;;;;;21.34;43.20;101748.59;5052369;28;20028;-68
2022/05/17 02:25:33;;;;;;;8.88;1.75;;;;;;;21.33;43.75;101741.44;5054010;28;20390;-66
2022/05/17 02:27:58;;;;;;;4.80;1.67;;;;;;;21.33;43.62;101741.44;5053937;28;20032;-66
2022/05/17 02:30:24;;;;;;;3.88;2.17;;;;;;;21.33;43.72;101749.63;5053824;28;20031;-68
2022/05/17 02:32:49;;;;;;;8.98;2.25;;;;;;;21.31;43.75;101754.41;5052360;28;20029;-67
2022/05/17 02:35:14;;;;;;;3.72;1.67;;;;;;;21.29;43.92;101747.44;5053900;28;20031;-66
2022/05/17 02:37:40;;;;;;;4.57;2.08;;;;;;;21.25;43.29;101744.19;5051414;28;20059;-67
2022/05/17 02:40:06;;;;;;;5.43;1.80;;;;;;;21.23;43.89;101749.00;5032646;28;20029;-67
2022/05/17 02:42:32;;;;;;;6.88;1.58;;;;;;;21.23;43.74;101762.63;5033953;28;20017;-68
2022/05/17 02:44:57;;;;;;;4.85;1.55;;;;;;;21.22;43.48;101760.03;5033594;28;20025;-68
2022/05/17 02:47:22;;;;;;;6.97;2.20;;;;;;;21.21;43.77;101763.81;5033893;28;20052;-67
2022/05/17 02:49:48;;;;;;;2.42;1.58;;;;;;;21.19;43.39;101765.88;5033957;28;20026;-67
2022/05/17 02:52:13;;;;;;;9.13;2.13;;;;;;;21.17;43.68;101763.31;5033748;28;20021;-67
2022/05/17 02:54:39;;;;;;;7.82;2.10;;;;;;;21.16;43.54;101767.06;5032214;28;20045;-67
2022/05/17 02:57:06;;;;;;;6.03;1.50;;;;;;;21.18;43.77;101765.03;5033558;28;20021;-67
2022/05/17 02:59:31;;;;;;;4.25;1.77;;;;;;;21.19;43.37;101766.69;5033832;28;20056;-67
2022/05/17 03:01:56;;;;;;;2.45;1.65;;;;;;;21.20;44.24;101768.41;5033521;28;20021;-67
2022/05/17 03:04:22;;;;;;;9.02;1.90;;;;;;;21.18;43.77;101770.47;5033755;28;20104;-67
2022/05/17 03:06:47;;;;;;;7.88;1.70;;;;;;;21.19;43.92;101765.88;5033256;28;20029;-66
2022/05/17 03:09:13;;;;;;;9.90;2.38;;;;;;;21.18;43.44;101758.72;5033462;28;20029;-67
2022/05/17 03:11:43;;;;;;;3.40;1.40;;;;;;;21.18;43.39;101765.03;5032514;28;20036;-67
2022/05/17 03:14:13;;;;;;;4.07;1.60;;;;;;;21.17;43.78;101763.31;5048224;28;20470;-67
2022/05/17 03:16:39;;;;;;;4.22;2.05;;;;;;;21.16;44.09;101767.06;5052471;28;20029;-68
2022/05/17 03:19:06;;;;;;;3.00;1.27;;;;;;;21.17;44.34;101768.75;5053317;28;20031;-68
2022/05/17 03:21:32;;;;;;;5.35;2.20;;;;;;;21.18;44.43;101770.47;5053286;28;20046;-68
2022/05/17 03:23:57;;;;;;;5.07;1.50;;;;;;;21.19;44.24;101763.16;5053380;28;20111;-67
2022/05/17 03:26:23;;;;;;;7.93;2.17;;;;;;;21.20;44.21;101764.84;5053172;28;20021;-67
2022/05/17 03:28:48;;;;;;;8.27;1.88;;;;;;;21.21;43.87;101767.41;5053303;28;20025;-67
2022/05/17 03:31:14;;;;;;;3.80;1.50;;;;;;;21.24;44.50;101764.31;5053101;28;20025;-67
2022/05/17 03:33:39;;;;;;;4.85;1.70;;;;;;;21.27;43.98;101772.13;5053287;28;20033;-66
2022/05/17 03:36:06;;;;;;;5.18;2.00;;;;;;;21.30;43.93;101760.03;5055129;28;20025;-67
2022/05/17 03:38:32;;;;;;;4.93;2.15;;;;;;;21.32;44.31;101761.56;5057107;28;20037;-68
2022/05/17 03:41:01;;;;;;;4.85;1.63;;;;;;;21.36;43.79;101762.03;5056877;28;20032;-67
2022/05/17 03:43:27;;;;;;;9.43;1.75;;;;;;;21.38;44.55;101760.84;5056978;28;20050;-67
2022/05/17 03:45:53;;;;;;;8.82;2.67;;;;;;;21.42;44.44;101756.75;5056635;28;20036;-67
2022/05/17 03:48:19;;;;;;;9.50;2.40;;;;;;;21.44;44.06;101757.41;5056992;28;20028;-67
2022/05/17 03:50:45;;;;;;;6.78;2.42;;;;;;;21.51;44.43;101770.34;5057161;28;20033;-67
2022/05/17 03:53:10;;;;;;;5.88;3.10;;;;;;;21.58;44.67;101779.53;5052717;28;20471;-67
2022/05/17 03:55:36;;;;;;;6.63;2.53;;;;;;;21.66;44.61;101784.94;5036727;28;20124;-66
2022/05/17 03:58:01;;;;;;;4.05;2.65;;;;;;;21.73;44.73;101775.00;5036653;28;20088;-66
2022/05/17 04:00:26;;;;;;;12.98;3.10;;;;;;;21.80;44.30;101776.00;5036808;28;20041;-67
2022/05/17 04:02:52;;;;;;;7.70;3.10;;;;;;;21.84;44.68;101782.78;5036563;28;20060;-67
2022/05/17 04:05:17;;;;;;;14.38;2.80;;;;;;;21.86;44.23;101788.94;5036542;28;20033;-67
2022/05/17 04:07:43;;;;;;;9.77;2.85;;;;;;;21.92;44.44;101790.94;5036707;28;20029;-68
2022/05/17 04:10:10;;;;;;;7.25;3.08;;;;;;;21.95;44.25;101785.13;5035166;28;20060;-66
2022/05/17 04:12:35;;;;;;;7.63;3.13;;;;;;;21.97;44.16;101785.81;5036455;28;20029;-67
2022/05/17 04:15:02;;;;;;;6.22;2.58;;;;;;;21.99;43.86;101786.47;5050820;28;20478;-68
2022/05/17 04:17:27;;;;;;;8.00;2.80;;;;;;;21.98;44.87;101779.31;5056359;28;20025;-66
2022/05/17 04:19:53;;;;;;;7.20;2.55;;;;;;;22.00;44.12;101785.44;5056028;28;20087;-66
2022/05/17 04:22:18;;;;;;;8.25;2.25;;;;;;;22.00;43.78;101782.69;5056404;28;20025;-66
2022/05/17 04:24:45;;;;;;;12.45;2.40;;;;;;;22.02;44.27;101791.59;5056320;28;20021;-66
2022/05/17 04:27:12;;;;;;;9.80;2.92;;;;;;;22.03;43.90;101787.81;5056374;28;20025;-67
2022/05/17 04:29:37;;;;;;;16.88;2.67;;;;;;;22.05;43.86;101783.03;5056312;28;20025;-67
2022/05/17 04:32:03;;;;;;;9.73;2.75;;;;;;;22.07;43.86;101789.16;5056170;28;20445;-67
2022/05/17 04:34:29;;;;;;;7.68;2.67;;;;;;;22.10;44.35;101790.66;5054584;28;20025;-67
2022/05/17 04:36:54;;;;;;;4.80;2.63;;;;;;;22.12;44.71;101781.28;5054790;28;20079;-67
2022/05/17 04:39:20;;;;;;;5.13;3.20;;;;;;;22.14;44.09;101783.84;5056079;28;20076;-67
2022/05/17 04:41:46;;;;;;;7.13;2.90;;;;;;;22.18;44.88;101786.00;5056193;28;20029;-67
2022/05/17 04:44:11;;;;;;;7.25;3.47;;;;;;;22.22;44.40;101781.88;5056094;28;20025;-67
2022/05/17 04:46:37;;;;;;;7.88;3.15;;;;;;;22.26;43.99;101785.09;5055667;28;20021;-66
2022/05/17 04:49:02;;;;;;;6.65;3.00;;;;;;;22.31;44.79;101786.25;5055803;28;20024;-67
2022/05/17 04:51:28;;;;;;;9.77;3.53;;;;;;;22.37;44.88;101784.66;5055665;28;20024;-68
2022/05/17 04:53:53;;;;;;;10.45;3.03;;;;;;;22.42;44.90;101783.09;5055176;28;20060;-67
2022/05/17 04:56:21;;;;;;;11.23;3.72;;;;;;;22.47;44.31;101780.66;5055580;28;20383;-67
2022/05/17 04:58:47;;;;;;;5.60;3.15;;;;;;;22.55;44.44;101777.88;5055925;28;20036;-67
2022/05/17 05:01:12;;;;;;;9.55;3.72;;;;;;;22.64;44.52;101781.38;5055843;28;20482;-67
2022/05/17 05:03:38;;;;;;;6.18;2.95;;;;;;;22.72;43.91;101788.69;5055550;28;20470;-67
2022/05/17 05:06:03;;;;;;;8.65;3.80;;;;;;;22.80;44.06;101786.72;5055601;28;20038;-67
2022/05/17 05:08:28;;;;;;;8.32;3.30;;;;;;;22.94;43.74;101785.03;5055558;28;20021;-68
2022/05/17 05:10:54;;;;;;;10.80;3.70;;;;;;;23.05;43.88;101790.06;5055103;28;20032;-66
2022/05/17 05:13:21;;;;;;;11.63;3.80;;;;;;;23.16;44.17;101787.72;5055292;28;20382;-66
2022/05/17 05:15:46;;;;;;;10.18;3.60;;;;;;;23.25;43.60;101785.75;5055029;28;20017;-66
2022/05/17 05:18:12;;;;;;;8.05;2.33;;;;;;;23.32;43.69;101789.41;5055369;28;20027;-68
2022/05/17 05:20:41;;;;;;;5.03;2.53;;;;;;;23.42;43.50;101797.38;5055060;28;20426;-67
2022/05/17 05:23:07;;;;;;;8.68;2.40;;;;;;;23.51;44.21;101790.72;5055222;28;20328;-68
2022/05/17 05:25:33;;;;;;;5.88;2.08;;;;;;;23.61;43.42;101792.16;5055438;28;20021;-67
2022/05/17 05:27:58;;;;;;;4.55;2.03;;;;;;;23.69;43.98;101799.41;5054925;28;20060;-67
2022/05/17 05:30:24;;;;;;;7.03;2.08;;;;;;;23.77;43.30;101796.56;5054934;28;20024;-67
2022/05/17 05:32:50;;;;;;;3.45;2.22;;;;;;;23.85;43.85;101798.31;5054714;28;20025;-67
2022/05/17 05:35:17;;;;;;;6.13;2.63;;;;;;;23.94;43.62;101791.69;5055020;28;20025;-68
2022/05/17 05:37:43;;;;;;;4.20;2.78;;;;;;;24.02;43.99;101788.84;5054973;28;20107;-67
2022/05/17 05:40:10;;;;;;;3.80;2.25;;;;;;;24.09;43.11;101784.31;5055674;28;20056;-67
2022/05/17 05:42:35;;;;;;;6.55;1.88;;;;;;;24.13;43.67;101797.44;5055112;28;20501;-67
2022/05/17 05:45:01;;;;;;;5.95;2.35;;;;;;;24.19;43.79;101806.75;5053660;28;20029;-67
2022/05/17 05:47:27;;;;;;;3.90;2.00;;;;;;;24.27;43.15;101810.22;5054817;28;20555;-67
2022/05/17 05:49:52;;;;;;;4.80;2.05;;;;;;;24.33;43.80;101819.56;5054547;28;20028;-67
2022/05/17 05:52:18;;;;;;;4.18;2.25;;;;;;;24.37;43.39;101814.53;5054515;28;20371;-68
2022/05/17 05:54:44;;;;;;;5.75;1.83;;;;;;;24.40;43.85;101823.19;5054394;28;20503;-66
2022/05/17 05:57:09;;;;;;;5.03;2.28;;;;;;;24.45;43.24;101818.00;5054719;28;20063;-66
2022/05/17 05:59:35;;;;;;;5.57;2.45;;;;;;;24.51;42.73;101819.13;5053854;28;20036;-67
2022/05/17 06:02:00;;;;;;;6.05;2.40;;;;;;;24.55;42.72;101818.50;5054194;28;20458;-67
2022/05/17 06:04:28;;;;;;;5.20;1.98;;;;;;;24.60;43.43;101818.75;5054064;28;20510;-67
2022/05/17 06:06:55;;;;;;;5.60;2.30;;;;;;;24.65;43.10;101821.75;5053979;28;20052;-67
2022/05/17 06:09:20;;;;;;;4.97;2.35;;;;;;;24.72;43.39;101819.94;5054365;28;20505;-67
2022/05/17 06:11:45;;;;;;;7.55;2.10;;;;;;;24.78;43.32;101824.63;5054225;28;20021;-68
2022/05/17 06:14:11;;;;;;;9.30;3.00;;;;;;;24.88;42.48;101819.69;5039365;28;20099;-67
2022/05/17 06:16:36;;;;;;;10.95;4.05;;;;;;;24.95;42.65;101824.38;5033021;28;20454;-68
2022/05/17 06:19:02;;;;;;;12.82;6.53;;;;;;;24.99;42.12;101820.16;5033866;28;20420;-67
2022/05/17 06:21:27;;;;;;;11.90;7.80;;;;;;;25.04;42.62;101817.69;5034040;28;20025;-66
2022/05/17 06:23:52;;;;;;;24.13;16.08;;;;;;;25.09;42.00;101816.06;5034281;28;20029;-67
2022/05/17 06:26:18;;;;;;;29.95;17.60;;;;;;;25.16;42.21;101813.34;5034099;28;20118;-67
2022/05/17 06:28:44;;;;;;;29.95;15.52;;;;;;;25.24;42.37;101824.16;5033919;28;20466;-67
2022/05/17 06:31:09;;;;;;;24.80;15.32;;;;;;;25.29;42.03;101818.94;5034208;28;20026;-67
2022/05/17 06:33:34;;;;;;;28.85;16.13;;;;;;;25.35;42.76;101818.09;5034042;28;20037;-68
2022/05/17 06:36:00;;;;;;;25.88;15.52;;;;;;;25.41;42.14;101818.16;5033831;28;20029;-68
2022/05/17 06:38:25;;;;;;;22.63;13.82;;;;;;;25.50;42.39;101824.34;5033530;28;20076;-68
2022/05/17 06:40:51;;;;;;;20.98;13.50;;;;;;;25.57;42.34;101828.00;5033214;28;20029;-68
2022/05/17 06:43:16;;;;;;;25.65;15.30;;;;;;;25.62;42.48;101822.75;5026458;28;20025;-66
2022/05/17 06:45:42;;;;;;;17.48;10.80;;;;;;;25.67;41.85;101825.72;5032116;28;20075;-67
2022/05/17 06:48:08;;;;;;;18.45;11.15;;;;;;;25.72;41.84;101823.22;5032397;28;20033;-68
2022/05/17 06:50:34;;;;;;;23.50;11.95;;;;;;;25.77;42.00;101830.81;5031998;28;20487;-68
2022/05/17 06:52:59;;;;;;;25.88;11.10;;;;;;;25.81;42.39;101835.72;5031467;28;20028;-68
2022/05/17 06:55:25;;;;;;;14.63;9.45;;;;;;;25.83;42.07;101830.00;5031690;28;20056;-67
2022/05/17 06:57:51;;;;;;;18.77;7.60;;;;;;;25.82;42.01;101826.44;5032138;28;20105;-68
2022/05/17 07:00:19;;;;;;;20.20;8.90;;;;;;;25.83;42.29;101830.00;5031992;28;20045;-67
2022/05/17 07:02:45;;;;;;;14.38;7.60;;;;;;;25.83;42.16;101836.34;5032237;28;20029;-67
2022/05/17 07:05:10;;;;;;;10.52;6.63;;;;;;;25.84;42.40;101837.19;5033366;28;20031;-68
2022/05/17 07:07:37;;;;;;;15.07;6.43;;;;;;;25.85;41.79;101838.91;5032205;28;20033;-67
2022/05/17 07:15:31;;;;;;;12.98;5.30;;;;;;;25.91;42.06;101847.16;5037388;28;20083;-67
2022/05/17 07:17:58;;;;;;;14.13;5.57;;;;;;;25.95;41.83;101851.19;5053445;28;20076;-68
2022/05/17 07:20:24;;;;;;;11.00;5.00;;;;;;;26.00;42.17;101854.16;5057570;28;20034;-67
2022/05/17 07:22:50;;;;;;;15.07;5.03;;;;;;;26.05;41.73;101862.63;5057100;28;20497;-67
2022/05/17 07:25:15;;;;;;;10.52;4.75;;;;;;;26.12;42.02;101850.84;5056890;28;20021;-67
2022/05/17 07:27:40;;;;;;;13.88;5.32;;;;;;;26.19;41.60;101860.81;5057165;28;20107;-68
2022/05/17 07:30:07;;;;;;;15.90;5.18;;;;;;;26.27;41.44;101857.06;5057143;28;20016;-67
2022/05/17 07:32:32;;;;;;;10.18;5.97;;;;;;;26.34;41.39;101860.66;5055618;28;20113;-67
2022/05/17 07:34:57;;;;;;;8.88;4.47;;;;;;;26.39;41.65;101858.13;5056914;28;20108;-67
2022/05/17 07:37:23;;;;;;;8.95;4.43;;;;;;;26.45;41.54;101857.28;5056819;28;20025;-67
2022/05/17 07:39:48;;;;;;;10.50;4.50;;;;;;;26.47;41.33;101855.19;5057210;28;20039;-67
2022/05/17 07:42:14;;;;;;;10.63;3.80;;;;;;;26.50;41.51;101865.75;5056877;28;20544;-67
2022/05/17 07:44:39;;;;;;;6.43;3.65;;;;;;;26.55;41.91;101857.72;5056709;28;20037;-67
2022/05/17 07:47:05;;;;;;;6.35;2.75;;;;;;;26.58;41.80;101857.31;5056465;28;20192;-67
2022/05/17 07:49:34;;;;;;;4.20;2.50;;;;;;;26.64;41.84;101845.47;5056696;28;20028;-67
2022/05/17 07:52:02;;;;;;;10.32;2.47;;;;;;;26.70;41.55;101854.78;5055408;28;20020;-67
2022/05/17 07:54:27;;;;;;;5.22;2.58;;;;;;;26.79;41.56;101853.56;5056204;28;20080;-67
2022/05/17 07:56:53;;;;;;;9.13;2.72;;;;;;;26.87;41.75;101854.22;5056378;28;20466;-67
2022/05/17 07:59:18;;;;;;;6.78;1.75;;;;;;;26.96;41.55;101852.94;5039413;28;20034;-67
2022/05/17 08:01:43;;;;;;;3.88;2.25;;;;;;;27.02;41.59;101857.63;5036522;28;20056;-67
2022/05/17 08:04:09;;;;;;;6.32;2.13;;;;;;;27.08;41.05;101858.66;5036471;28;20109;-67
2022/05/17 08:06:35;;;;;;;3.22;1.85;;;;;;;27.13;41.09;101856.13;5036422;28;20056;-68
2022/05/17 08:09:01;;;;;;;2.20;1.25;;;;;;;27.13;41.17;101851.47;5036290;28;20025;-67
2022/05/17 08:11:26;;;;;;;7.15;1.35;;;;;;;27.13;40.99;101856.97;5037902;28;20021;-67
2022/05/17 08:13:52;;;;;;;3.60;1.27;;;;;;;27.12;41.86;101854.41;5040988;28;20048;-67
2022/05/17 08:16:17;;;;;;;7.03;1.30;;;;;;;27.13;41.76;101854.22;5056292;28;20033;-67
2022/05/17 08:18:43;;;;;;;4.55;1.58;;;;;;;27.12;41.03;101855.28;5056024;28;20432;-66
2022/05/17 08:21:09;;;;;;;4.60;1.00;;;;;;;27.14;41.73;101853.13;5055259;28;20035;-67
2022/05/17 08:23:34;;;;;;;8.45;1.27;;;;;;;27.13;41.38;101851.47;5055975;28;20390;-68
2022/05/17 08:28:44;;;;;;;8.07;1.73;;;;;;;27.15;41.26;101854.84;5055878;28;20058;-67
2022/05/17 08:31:10;;;;;;;4.90;1.30;;;;;;;27.17;41.74;101846.38;5055763;28;20546;-67
2022/05/17 08:33:38;;;;;;;5.72;1.33;;;;;;;27.21;41.31;101849.53;5055737;28;20040;-68
2022/05/17 08:36:05;;;;;;;3.50;1.77;;;;;;;27.27;41.63;101860.56;5054489;28;20023;-66
2022/05/17 08:38:35;;;;;;;4.53;1.60;;;;;;;27.33;40.65;101856.91;5055634;28;20061;-68
2022/05/17 08:41:13;;;;;;;4.00;1.58;;;;;;;27.45;41.78;101851.63;5050551;28;20022;-68
2022/05/17 08:43:53;;;;;;;4.78;0.98;;;;;;;27.54;40.90;101850.34;5035689;28;20079;-67
2022/05/17 08:46:34;;;;;;;9.75;1.65;;;;;;;27.64;41.38;101853.50;5035605;28;20033;-67
2022/05/17 08:49:23;;;;;;;2.15;1.00;;;;;;;27.73;40.56;101852.19;5035580;28;20029;-68
2022/05/17 08:52:04;;;;;;;3.05;1.00;;;;;;;27.83;40.82;101849.84;5035794;28;20029;-67
2022/05/17 08:54:37;;;;;;;5.57;1.05;;;;;;;27.95;40.55;101850.84;5052193;28;20029;-67
2022/05/17 08:57:36;;;;;;;6.45;1.10;;;;;;;28.13;40.66;101851.03;5054316;28;20035;-67
2022/05/17 09:00:09;;;;;;;6.43;1.63;;;;;;;28.24;40.23;101850.31;5037312;28;20052;-67
2022/05/17 09:02:45;;;;;;;3.65;1.17;;;;;;;28.35;40.06;101856.19;5054281;28;20025;-66
2022/05/17 09:05:33;;;;;;;8.90;1.08;;;;;;;28.45;40.69;101848.31;5055393;28;20070;-67
2022/05/17 09:08:41;;;;;;;2.47;1.00;;;;;;;28.55;40.02;101860.53;5055542;28;20029;-67
2022/05/17 09:11:25;;;;;;;5.90;1.70;;;;;;;28.64;40.09;101859.22;5054100;28;20032;-67
2022/05/17 09:13:59;;;;;;;4.57;1.27;;;;;;;28.73;40.28;101857.03;5055551;28;20056;-67
2022/05/17 09:16:27;;;;;;;6.13;1.33;;;;;;;28.79;39.44;101854.22;5054237;28;20474;-67
2022/05/17 09:18:52;;;;;;;3.97;1.88;;;;;;;28.88;39.53;101854.78;5054209;28;20024;-67
2022/05/17 09:21:27;;;;;;;1.73;0.70;;;;;;;28.96;39.20;101859.19;5054953;28;20487;-67
2022/05/17 09:23:53;;;;;;;3.70;1.25;;;;;;;29.01;39.66;101857.44;5054917;28;20032;-67
2022/05/17 09:26:19;;;;;;;5.70;1.38;;;;;;;29.03;39.47;101857.22;5054885;28;20390;-66
2022/05/17 09:28:47;;;;;;;1.60;0.85;;;;;;;29.08;38.75;101860.16;5053671;28;20108;-67
2022/05/17 09:31:17;;;;;;;6.20;1.48;;;;;;;29.14;39.00;101857.34;5054695;28;20044;-67
2022/05/17 09:33:43;;;;;;;2.22;0.85;;;;;;;29.24;38.44;101851.31;5053698;28;20017;-67
2022/05/17 09:36:16;;;;;;;3.17;1.13;;;;;;;29.32;38.80;101849.09;5036096;28;20040;-66
2022/05/17 09:38:42;;;;;;;5.30;0.98;;;;;;;29.38;38.38;101847.34;5034119;28;20044;-66
2022/05/17 09:41:12;;;;;;;8.20;1.25;;;;;;;29.43;38.33;101841.97;5033522;28;20029;-67
2022/05/17 09:44:05;;;;;;;5.78;0.75;;;;;;;29.46;38.11;101833.25;5031968;28;20016;-66
2022/05/17 09:46:44;;;;;;;;;;;;;;;29.48;38.24;101835.78;5030666;28;20128;-67
2022/05/17 09:54:54;;;;;;;6.05;1.13;;;;;;;29.38;38.14;101820.59;5033176;28;20053;-67
2022/05/17 09:57:22;;;;;;;3.20;1.00;;;;;;;29.41;38.06;101820.13;5034746;28;20025;-67
2022/05/17 09:59:50;;;;;;;7.53;1.48;;;;;;;29.48;37.71;101813.69;5034564;28;20049;-67
2022/05/17 10:02:34;;;;;;;5.72;1.35;;;;;;;29.57;37.17;101820.56;5049533;28;20115;-66
2022/05/17 10:05:09;;;;;;;7.30;1.00;;;;;;;29.68;37.76;101814.28;5054174;28;20033;-67
2022/05/17 10:07:34;;;;;;;2.40;1.13;;;;;;;29.78;37.50;101811.84;5053916;28;20029;-67
2022/05/17 10:10:09;;;;;;;1.75;1.10;;;;;;;29.89;36.68;101800.88;5052519;28;20047;-67
2022/05/17 10:12:37;;;;;;;7.63;1.23;;;;;;;30.02;36.70;101800.69;5053808;28;20078;-66
2022/05/17 10:15:07;;;;;;;2.17;1.27;;;;;;;30.20;36.57;101796.19;5052639;28;20029;-67
2022/05/17 10:17:55;;;;;;;3.25;1.10;;;;;;;30.56;36.32;101805.25;5036848;28;20022;-65
2022/05/17 10:20:26;;;;;;;4.60;1.17;;;;;;;30.84;35.88;101789.88;5032624;28;20033;-66
2022/05/17 10:22:59;;;;;;;2.53;1.25;;;;;;;31.56;35.74;101786.63;5033752;28;20032;-67
2022/05/17 10:25:31;;;;;;;3.15;1.10;;;;;;;32.34;33.82;101783.22;5032785;28;20029;-73
2022/05/17 10:28:26;;;;;;;5.65;1.10;;;;;;;32.77;33.43;101777.91;5033526;28;20025;-66
2022/05/17 10:30:55;;;;;;;3.85;1.20;;;;;;;33.31;32.97;101778.16;5031614;28;20037;-67
2022/05/17 10:34:07;;;;;;;3.55;1.23;;;;;;;34.32;32.97;101774.72;5032266;28;20037;-68
2022/05/17 10:36:44;;;;;;;4.03;1.42;;;;;;;35.10;31.23;101775.94;5033291;28;20506;-68
2022/05/17 10:39:31;;;;;;;2.75;1.30;;;;;;;35.75;30.57;101772.69;5048334;28;20029;-67
2022/05/17 10:41:57;;;;;;;3.15;1.25;;;;;;;36.26;30.64;101770.03;5052658;28;20033;-68
2022/05/17 10:44:31;;;;;;;2.65;1.15;;;;;;;36.80;29.91;101771.19;5053206;28;20043;-68
2022/05/17 10:47:03;;;;;;;1.42;1.20;;;;;;;37.25;29.62;101754.38;5052246;28;20104;-68
2022/05/17 10:49:50;;;;;;;3.72;0.80;;;;;;;37.55;29.39;101747.84;5035593;28;20036;-67
2022/05/17 10:52:38;;;;;;;2.40;1.42;;;;;;;37.97;28.67;101755.75;5053448;28;20359;-68
2022/05/17 10:55:13;;;;;;;3.08;2.83;;;;;;;38.31;27.85;101756.63;5052744;28;20076;-68
2022/05/17 10:58:23;;;;;;;2.05;0.82;;;;;;;38.59;27.02;101752.22;5053451;28;20091;-68
2022/05/17 11:01:02;;;;;;;4.20;1.10;;;;;;;38.81;26.21;101754.56;5053305;28;20490;-68
2022/05/17 11:04:02;;;;;;;1.73;1.30;;;;;;;39.11;26.25;101745.88;5052345;28;20032;-68
2022/05/17 11:07:06;;;;;;;4.53;1.27;;;;;;;39.40;26.71;101748.63;5052023;28;20036;-68
2022/05/17 11:09:52;;;;;;;2.47;1.00;;;;;;;39.52;26.25;101738.66;5045343;28;20044;-67
2022/05/17 11:12:22;;;;;;;9.80;0.65;;;;;;;39.68;25.22;101735.66;5052025;28;20025;-68
2022/05/17 11:14:53;;;;;;;2.13;0.68;;;;;;;39.84;24.96;101739.94;5052720;28;20028;-68
2022/05/17 11:17:36;;;;;;;0.80;0.60;;;;;;;40.03;24.84;101732.34;5053158;28;20107;-67
2022/05/17 11:20:12;;;;;;;2.00;0.40;;;;;;;40.15;24.90;101735.53;5053188;28;20025;-67
2022/05/17 11:23:03;;;;;;;1.67;0.60;;;;;;;40.13;24.22;101732.19;5051885;28;20486;-68
2022/05/17 11:25:50;;;;;;;2.88;0.63;;;;;;;40.29;24.53;101719.56;5051723;28;20498;-68
2022/05/17 11:28:25;;;;;;;2.05;0.73;;;;;;;40.46;24.70;101714.22;5053129;28;20506;-67
2022/05/17 11:31:29;;;;;;;1.75;0.65;;;;;;;40.63;24.01;101719.28;5053116;28;20501;-67
2022/05/17 11:34:26;;;;;;;1.83;0.68;;;;;;;40.81;24.37;101714.75;5030997;28;20164;-68
2022/05/17 11:36:54;;;;;;;3.00;1.10;;;;;;;40.98;23.59;101715.03;5031131;28;20037;-68
2022/05/17 11:39:31;;;;;;;2.50;0.60;;;;;;;41.03;23.64;101707.31;5014091;28;20530;-68
2022/05/17 11:42:11;;;;;;;0.55;0.40;;;;;;;40.54;24.12;101710.75;5031054;28;20049;-68
2022/05/17 11:44:44;;;;;;;3.47;0.57;;;;;;;39.76;23.83;101706.94;5030868;28;20058;-68
2022/05/17 11:47:31;;;;;;;1.73;0.40;;;;;;;39.22;24.77;101699.78;5030826;28;20033;-68
2022/05/17 11:50:11;;;;;;;0.55;0.50;;;;;;;38.92;24.55;101700.09;5030975;28;20113;-67